sensor_id;sensor_type;location;lat;lon;timestamp;P1;durP1;ratioP1;P2;durP2;ratioP2
36221;SDS011;22266;52.340;4.962;2023-07-16T00:01:53;1.00;;;1.00;;
36221;SDS011;22266;52.340;4.962;2023-07-16T00:04:19;1.25;;;1.00;;
36221;SDS011;22266;52.340;4.962;2023-07-16T00:06:46;1.75;;;1.75;;
36221;SDS011;22266;52.340;4.962;2023-07-16T00:09:13;2.33;;;2.33;;
36221;SDS011;22266;52.340;4.962;2023-07-16T00:11:39;3.25;;;1.75;;
36221;SDS011;22266;52.340;4.962;2023-07-16T00:14:05;1.50;;;1.50;;
36221;SDS011;22266;52.340;4.962;2023-07-16T00:16:32;1.25;;;1.00;;
36221;SDS011;22266;52.340;4.962;2023-07-16T00:18:59;2.00;;;2.00;;
36221;SDS011;22266;52.340;4.962;2023-07-16T00:21:26;1.00;;;1.00;;
36221;SDS011;22266;52.340;4.962;2023-07-16T00:23:52;1.00;;;0.50;;
36221;SDS011;22266;52.340;4.962;2023-07-16T00:26:19;1.00;;;1.00;;
36221;SDS011;22266;52.340;4.962;2023-07-16T00:28:45;1.00;;;1.00;;
36221;SDS011;22266;52.340;4.962;2023-07-16T00:31:12;1.00;;;1.00;;
36221;SDS011;22266;52.340;4.962;2023-07-16T00:33:38;4.00;;;3.00;;
36221;SDS011;22266;52.340;4.962;2023-07-16T00:36:05;2.00;;;2.00;;
36221;SDS011;22266;52.340;4.962;2023-07-16T00:38:31;2.25;;;1.75;;
36221;SDS011;22266;52.340;4.962;2023-07-16T00:40:58;2.75;;;2.00;;
36221;SDS011;22266;52.340;4.962;2023-07-16T00:43:24;1.50;;;0.75;;
36221;SDS011;22266;52.340;4.962;2023-07-16T00:45:51;3.00;;;2.00;;
36221;SDS011;22266;52.340;4.962;2023-07-16T00:48:17;2.00;;;2.00;;
36221;SDS011;22266;52.340;4.962;2023-07-16T00:50:45;3.00;;;3.00;;
36221;SDS011;22266;52.340;4.962;2023-07-16T00:53:12;2.67;;;2.67;;
36221;SDS011;22266;52.340;4.962;2023-07-16T00:55:39;1.00;;;1.00;;
36221;SDS011;22266;52.340;4.962;2023-07-16T00:58:06;2.75;;;2.75;;
36221;SDS011;22266;52.340;4.962;2023-07-16T01:00:33;3.00;;;2.00;;
36221;SDS011;22266;52.340;4.962;2023-07-16T01:03:02;1.00;;;1.00;;
36221;SDS011;22266;52.340;4.962;2023-07-16T01:05:34;2.00;;;1.50;;
36221;SDS011;22266;52.340;4.962;2023-07-16T01:08:09;4.33;;;2.00;;
36221;SDS011;22266;52.340;4.962;2023-07-16T01:10:37;5.33;;;3.00;;
36221;SDS011;22266;52.340;4.962;2023-07-16T01:13:04;2.00;;;2.00;;
36221;SDS011;22266;52.340;4.962;2023-07-16T01:15:31;2.67;;;2.67;;
36221;SDS011;22266;52.340;4.962;2023-07-16T01:17:58;3.33;;;3.00;;
36221;SDS011;22266;52.340;4.962;2023-07-16T01:20:26;7.67;;;4.00;;
36221;SDS011;22266;52.340;4.962;2023-07-16T01:25:33;5.00;;;2.33;;
36221;SDS011;22266;52.340;4.962;2023-07-16T01:28:22;4.33;;;3.00;;
36221;SDS011;22266;52.340;4.962;2023-07-16T01:31:05;5.00;;;5.00;;
36221;SDS011;22266;52.340;4.962;2023-07-16T01:33:38;2.67;;;2.67;;
36221;SDS011;22266;52.340;4.962;2023-07-16T01:36:11;3.00;;;3.00;;
36221;SDS011;22266;52.340;4.962;2023-07-16T01:38:39;1.00;;;1.00;;
36221;SDS011;22266;52.340;4.962;2023-07-16T01:41:06;3.00;;;3.00;;
36221;SDS011;22266;52.340;4.962;2023-07-16T01:43:32;2.67;;;2.67;;
36221;SDS011;22266;52.340;4.962;2023-07-16T01:45:59;2.00;;;2.00;;
36221;SDS011;22266;52.340;4.962;2023-07-16T01:48:29;2.67;;;2.67;;
36221;SDS011;22266;52.340;4.962;2023-07-16T01:50:58;4.33;;;3.67;;
36221;SDS011;22266;52.340;4.962;2023-07-16T01:53:25;5.00;;;5.00;;
36221;SDS011;22266;52.340;4.962;2023-07-16T01:55:52;3.00;;;3.00;;
36221;SDS011;22266;52.340;4.962;2023-07-16T01:58:19;5.33;;;5.33;;
36221;SDS011;22266;52.340;4.962;2023-07-16T02:00:49;5.67;;;5.00;;
36221;SDS011;22266;52.340;4.962;2023-07-16T02:03:16;4.00;;;4.00;;
36221;SDS011;22266;52.340;4.962;2023-07-16T02:05:45;2.67;;;2.67;;
36221;SDS011;22266;52.340;4.962;2023-07-16T02:08:11;2.33;;;2.33;;
36221;SDS011;22266;52.340;4.962;2023-07-16T02:10:37;8.00;;;6.00;;
36221;SDS011;22266;52.340;4.962;2023-07-16T02:13:04;5.00;;;4.67;;
36221;SDS011;22266;52.340;4.962;2023-07-16T02:15:30;3.67;;;3.00;;
36221;SDS011;22266;52.340;4.962;2023-07-16T02:17:57;4.00;;;3.00;;
36221;SDS011;22266;52.340;4.962;2023-07-16T02:20:24;5.33;;;5.33;;
36221;SDS011;22266;52.340;4.962;2023-07-16T02:22:51;5.67;;;5.33;;
36221;SDS011;22266;52.340;4.962;2023-07-16T02:25:17;6.00;;;3.00;;
36221;SDS011;22266;52.340;4.962;2023-07-16T02:27:46;7.33;;;6.67;;
36221;SDS011;22266;52.340;4.962;2023-07-16T02:30:13;6.00;;;5.67;;
36221;SDS011;22266;52.340;4.962;2023-07-16T02:32:42;6.00;;;4.67;;
36221;SDS011;22266;52.340;4.962;2023-07-16T02:35:09;4.00;;;4.00;;
36221;SDS011;22266;52.340;4.962;2023-07-16T02:37:36;6.00;;;6.00;;
36221;SDS011;22266;52.340;4.962;2023-07-16T02:40:03;9.00;;;7.67;;
36221;SDS011;22266;52.340;4.962;2023-07-16T02:42:30;6.33;;;6.33;;
36221;SDS011;22266;52.340;4.962;2023-07-16T02:44:56;10.33;;;9.00;;
36221;SDS011;22266;52.340;4.962;2023-07-16T02:47:23;7.00;;;7.00;;
36221;SDS011;22266;52.340;4.962;2023-07-16T02:49:52;7.00;;;7.00;;
36221;SDS011;22266;52.340;4.962;2023-07-16T02:52:19;5.00;;;4.67;;
36221;SDS011;22266;52.340;4.962;2023-07-16T02:54:45;7.00;;;6.67;;
36221;SDS011;22266;52.340;4.962;2023-07-16T02:57:12;5.33;;;4.67;;
36221;SDS011;22266;52.340;4.962;2023-07-16T02:59:38;5.67;;;5.67;;
36221;SDS011;22266;52.340;4.962;2023-07-16T03:02:05;7.00;;;6.67;;
36221;SDS011;22266;52.340;4.962;2023-07-16T03:04:32;5.33;;;5.33;;
36221;SDS011;22266;52.340;4.962;2023-07-16T03:06:58;9.00;;;8.33;;
36221;SDS011;22266;52.340;4.962;2023-07-16T03:09:25;9.67;;;6.67;;
36221;SDS011;22266;52.340;4.962;2023-07-16T03:11:51;11.00;;;9.67;;
36221;SDS011;22266;52.340;4.962;2023-07-16T03:14:18;9.00;;;8.00;;
36221;SDS011;22266;52.340;4.962;2023-07-16T03:16:44;8.00;;;7.00;;
36221;SDS011;22266;52.340;4.962;2023-07-16T03:19:11;7.00;;;5.33;;
36221;SDS011;22266;52.340;4.962;2023-07-16T03:21:37;9.00;;;8.33;;
36221;SDS011;22266;52.340;4.962;2023-07-16T03:24:04;10.67;;;8.33;;
36221;SDS011;22266;52.340;4.962;2023-07-16T03:26:31;8.00;;;7.00;;
36221;SDS011;22266;52.340;4.962;2023-07-16T03:28:57;8.67;;;7.00;;
36221;SDS011;22266;52.340;4.962;2023-07-16T03:31:24;8.67;;;8.00;;
36221;SDS011;22266;52.340;4.962;2023-07-16T03:33:51;9.33;;;7.33;;
36221;SDS011;22266;52.340;4.962;2023-07-16T03:36:18;8.67;;;8.33;;
36221;SDS011;22266;52.340;4.962;2023-07-16T03:38:44;9.67;;;8.00;;
36221;SDS011;22266;52.340;4.962;2023-07-16T03:41:11;10.33;;;6.00;;
36221;SDS011;22266;52.340;4.962;2023-07-16T03:43:38;5.00;;;5.00;;
36221;SDS011;22266;52.340;4.962;2023-07-16T03:46:16;9.33;;;8.33;;
36221;SDS011;22266;52.340;4.962;2023-07-16T03:48:44;9.67;;;8.00;;
36221;SDS011;22266;52.340;4.962;2023-07-16T03:51:11;7.00;;;5.33;;
36221;SDS011;22266;52.340;4.962;2023-07-16T03:53:37;9.00;;;8.00;;
36221;SDS011;22266;52.340;4.962;2023-07-16T03:56:04;6.00;;;3.00;;
36221;SDS011;22266;52.340;4.962;2023-07-16T03:58:31;5.00;;;4.67;;
36221;SDS011;22266;52.340;4.962;2023-07-16T04:01:00;4.00;;;4.00;;
36221;SDS011;22266;52.340;4.962;2023-07-16T04:03:27;3.67;;;3.67;;
36221;SDS011;22266;52.340;4.962;2023-07-16T04:06:03;6.33;;;6.33;;
36221;SDS011;22266;52.340;4.962;2023-07-16T04:08:31;5.00;;;5.00;;
36221;SDS011;22266;52.340;4.962;2023-07-16T04:10:58;4.00;;;4.00;;
36221;SDS011;22266;52.340;4.962;2023-07-16T04:13:25;3.33;;;3.33;;
36221;SDS011;22266;52.340;4.962;2023-07-16T04:15:51;6.00;;;6.00;;
36221;SDS011;22266;52.340;4.962;2023-07-16T04:18:19;7.33;;;6.00;;
36221;SDS011;22266;52.340;4.962;2023-07-16T04:20:47;5.67;;;4.67;;
36221;SDS011;22266;52.340;4.962;2023-07-16T04:23:13;3.00;;;3.00;;
36221;SDS011;22266;52.340;4.962;2023-07-16T04:25:40;4.00;;;4.00;;
36221;SDS011;22266;52.340;4.962;2023-07-16T04:28:07;6.00;;;6.00;;
36221;SDS011;22266;52.340;4.962;2023-07-16T04:30:33;8.67;;;5.33;;
36221;SDS011;22266;52.340;4.962;2023-07-16T04:33:00;5.67;;;4.33;;
36221;SDS011;22266;52.340;4.962;2023-07-16T04:35:26;8.33;;;8.33;;
36221;SDS011;22266;52.340;4.962;2023-07-16T04:37:53;7.33;;;7.00;;
36221;SDS011;22266;52.340;4.962;2023-07-16T04:40:19;8.00;;;6.00;;
36221;SDS011;22266;52.340;4.962;2023-07-16T04:42:46;6.33;;;6.33;;
36221;SDS011;22266;52.340;4.962;2023-07-16T04:45:12;6.00;;;6.00;;
36221;SDS011;22266;52.340;4.962;2023-07-16T04:47:39;7.33;;;7.33;;
36221;SDS011;22266;52.340;4.962;2023-07-16T04:50:05;8.67;;;5.00;;
36221;SDS011;22266;52.340;4.962;2023-07-16T04:52:32;5.00;;;5.00;;
36221;SDS011;22266;52.340;4.962;2023-07-16T04:54:59;5.33;;;5.33;;
36221;SDS011;22266;52.340;4.962;2023-07-16T04:57:25;4.00;;;4.00;;
36221;SDS011;22266;52.340;4.962;2023-07-16T04:59:52;8.67;;;6.00;;
36221;SDS011;22266;52.340;4.962;2023-07-16T05:02:20;8.00;;;7.33;;
36221;SDS011;22266;52.340;4.962;2023-07-16T05:04:47;7.33;;;7.00;;
36221;SDS011;22266;52.340;4.962;2023-07-16T05:07:14;5.33;;;3.67;;
36221;SDS011;22266;52.340;4.962;2023-07-16T05:09:41;7.33;;;6.67;;
36221;SDS011;22266;52.340;4.962;2023-07-16T05:12:08;10.33;;;6.67;;
36221;SDS011;22266;52.340;4.962;2023-07-16T05:14:45;5.00;;;5.00;;
36221;SDS011;22266;52.340;4.962;2023-07-16T05:17:14;5.33;;;5.33;;
36221;SDS011;22266;52.340;4.962;2023-07-16T05:19:41;7.00;;;6.00;;
36221;SDS011;22266;52.340;4.962;2023-07-16T05:22:08;9.00;;;6.33;;
36221;SDS011;22266;52.340;4.962;2023-07-16T05:24:35;9.33;;;8.33;;
36221;SDS011;22266;52.340;4.962;2023-07-16T05:27:01;5.00;;;5.00;;
36221;SDS011;22266;52.340;4.962;2023-07-16T05:29:28;8.33;;;8.33;;
36221;SDS011;22266;52.340;4.962;2023-07-16T05:31:54;5.00;;;5.00;;
36221;SDS011;22266;52.340;4.962;2023-07-16T05:34:21;6.33;;;6.33;;
36221;SDS011;22266;52.340;4.962;2023-07-16T05:36:47;7.00;;;5.33;;
36221;SDS011;22266;52.340;4.962;2023-07-16T05:39:14;7.67;;;7.67;;
36221;SDS011;22266;52.340;4.962;2023-07-16T05:41:40;7.67;;;7.00;;
36221;SDS011;22266;52.340;4.962;2023-07-16T05:44:07;6.00;;;6.00;;
36221;SDS011;22266;52.340;4.962;2023-07-16T05:46:35;8.33;;;7.00;;
36221;SDS011;22266;52.340;4.962;2023-07-16T05:49:01;6.00;;;6.00;;
36221;SDS011;22266;52.340;4.962;2023-07-16T05:51:28;5.33;;;4.00;;
36221;SDS011;22266;52.340;4.962;2023-07-16T05:53:54;6.00;;;6.00;;
36221;SDS011;22266;52.340;4.962;2023-07-16T05:56:21;6.00;;;6.00;;
36221;SDS011;22266;52.340;4.962;2023-07-16T05:58:47;6.00;;;5.33;;
36221;SDS011;22266;52.340;4.962;2023-07-16T06:01:14;4.67;;;4.67;;
36221;SDS011;22266;52.340;4.962;2023-07-16T06:03:40;10.00;;;6.67;;
36221;SDS011;22266;52.340;4.962;2023-07-16T06:06:10;5.33;;;5.33;;
36221;SDS011;22266;52.340;4.962;2023-07-16T06:08:36;7.00;;;5.00;;
36221;SDS011;22266;52.340;4.962;2023-07-16T06:11:03;7.00;;;6.00;;
36221;SDS011;22266;52.340;4.962;2023-07-16T06:13:30;7.67;;;6.67;;
36221;SDS011;22266;52.340;4.962;2023-07-16T06:15:56;5.67;;;5.67;;
36221;SDS011;22266;52.340;4.962;2023-07-16T06:18:23;6.33;;;6.33;;
36221;SDS011;22266;52.340;4.962;2023-07-16T06:20:49;6.67;;;6.67;;
36221;SDS011;22266;52.340;4.962;2023-07-16T06:23:18;9.33;;;8.33;;
36221;SDS011;22266;52.340;4.962;2023-07-16T06:25:44;8.00;;;4.67;;
36221;SDS011;22266;52.340;4.962;2023-07-16T06:28:13;5.67;;;5.67;;
36221;SDS011;22266;52.340;4.962;2023-07-16T06:30:39;9.00;;;7.00;;
36221;SDS011;22266;52.340;4.962;2023-07-16T06:33:06;6.00;;;4.67;;
36221;SDS011;22266;52.340;4.962;2023-07-16T06:35:33;8.00;;;4.67;;
36221;SDS011;22266;52.340;4.962;2023-07-16T06:37:59;6.00;;;5.67;;
36221;SDS011;22266;52.340;4.962;2023-07-16T06:40:25;9.67;;;8.33;;
36221;SDS011;22266;52.340;4.962;2023-07-16T06:42:52;7.67;;;7.33;;
36221;SDS011;22266;52.340;4.962;2023-07-16T06:45:18;8.33;;;7.33;;
36221;SDS011;22266;52.340;4.962;2023-07-16T06:47:45;7.00;;;7.00;;
36221;SDS011;22266;52.340;4.962;2023-07-16T06:50:11;6.67;;;6.00;;
36221;SDS011;22266;52.340;4.962;2023-07-16T06:52:38;6.33;;;6.33;;
36221;SDS011;22266;52.340;4.962;2023-07-16T06:55:05;9.00;;;7.67;;
36221;SDS011;22266;52.340;4.962;2023-07-16T06:57:31;8.00;;;6.67;;
36221;SDS011;22266;52.340;4.962;2023-07-16T06:59:58;9.00;;;9.00;;
36221;SDS011;22266;52.340;4.962;2023-07-16T07:02:24;6.67;;;6.67;;
36221;SDS011;22266;52.340;4.962;2023-07-16T07:04:51;6.00;;;5.33;;
36221;SDS011;22266;52.340;4.962;2023-07-16T07:07:17;7.33;;;7.33;;
36221;SDS011;22266;52.340;4.962;2023-07-16T07:09:46;10.33;;;7.00;;
36221;SDS011;22266;52.340;4.962;2023-07-16T07:12:14;9.00;;;9.00;;
36221;SDS011;22266;52.340;4.962;2023-07-16T07:14:41;7.00;;;5.33;;
36221;SDS011;22266;52.340;4.962;2023-07-16T07:17:07;9.33;;;6.67;;
36221;SDS011;22266;52.340;4.962;2023-07-16T07:19:34;8.67;;;8.67;;
36221;SDS011;22266;52.340;4.962;2023-07-16T07:22:00;9.00;;;6.33;;
36221;SDS011;22266;52.340;4.962;2023-07-16T07:24:27;7.33;;;7.00;;
36221;SDS011;22266;52.340;4.962;2023-07-16T07:26:53;8.67;;;7.33;;
36221;SDS011;22266;52.340;4.962;2023-07-16T07:29:20;9.33;;;7.67;;
36221;SDS011;22266;52.340;4.962;2023-07-16T07:31:46;7.33;;;6.00;;
36221;SDS011;22266;52.340;4.962;2023-07-16T07:34:13;6.33;;;4.33;;
36221;SDS011;22266;52.340;4.962;2023-07-16T07:36:39;8.33;;;6.00;;
36221;SDS011;22266;52.340;4.962;2023-07-16T07:39:06;6.33;;;6.33;;
36221;SDS011;22266;52.340;4.962;2023-07-16T07:41:33;8.67;;;6.67;;
36221;SDS011;22266;52.340;4.962;2023-07-16T07:43:59;5.33;;;5.33;;
36221;SDS011;22266;52.340;4.962;2023-07-16T07:46:26;11.00;;;8.00;;
36221;SDS011;22266;52.340;4.962;2023-07-16T07:48:53;9.00;;;7.67;;
36221;SDS011;22266;52.340;4.962;2023-07-16T07:51:20;9.33;;;8.33;;
36221;SDS011;22266;52.340;4.962;2023-07-16T07:53:46;6.00;;;6.00;;
36221;SDS011;22266;52.340;4.962;2023-07-16T07:56:13;7.00;;;6.00;;
36221;SDS011;22266;52.340;4.962;2023-07-16T07:58:40;8.00;;;7.00;;
36221;SDS011;22266;52.340;4.962;2023-07-16T08:01:06;6.67;;;6.67;;
36221;SDS011;22266;52.340;4.962;2023-07-16T08:03:34;8.00;;;8.00;;
36221;SDS011;22266;52.340;4.962;2023-07-16T08:06:01;9.00;;;8.00;;
36221;SDS011;22266;52.340;4.962;2023-07-16T08:08:28;8.33;;;8.00;;
36221;SDS011;22266;52.340;4.962;2023-07-16T08:10:54;8.67;;;8.00;;
36221;SDS011;22266;52.340;4.962;2023-07-16T08:13:21;8.33;;;7.00;;
36221;SDS011;22266;52.340;4.962;2023-07-16T08:15:48;10.00;;;8.33;;
36221;SDS011;22266;52.340;4.962;2023-07-16T08:18:14;12.00;;;9.00;;
36221;SDS011;22266;52.340;4.962;2023-07-16T08:20:41;11.33;;;8.67;;
36221;SDS011;22266;52.340;4.962;2023-07-16T08:23:07;6.33;;;6.33;;
36221;SDS011;22266;52.340;4.962;2023-07-16T08:25:34;8.67;;;8.67;;
36221;SDS011;22266;52.340;4.962;2023-07-16T08:28:03;10.67;;;9.33;;
36221;SDS011;22266;52.340;4.962;2023-07-16T08:30:31;8.67;;;7.00;;
36221;SDS011;22266;52.340;4.962;2023-07-16T08:32:58;11.00;;;9.00;;
36221;SDS011;22266;52.340;4.962;2023-07-16T08:35:25;7.00;;;6.33;;
36221;SDS011;22266;52.340;4.962;2023-07-16T08:37:51;10.67;;;9.33;;
36221;SDS011;22266;52.340;4.962;2023-07-16T08:40:18;8.67;;;7.33;;
36221;SDS011;22266;52.340;4.962;2023-07-16T08:42:46;7.00;;;6.67;;
36221;SDS011;22266;52.340;4.962;2023-07-16T08:45:15;7.00;;;7.00;;
36221;SDS011;22266;52.340;4.962;2023-07-16T08:47:42;7.67;;;7.67;;
36221;SDS011;22266;52.340;4.962;2023-07-16T08:50:09;8.67;;;8.00;;
36221;SDS011;22266;52.340;4.962;2023-07-16T08:52:37;9.00;;;7.33;;
36221;SDS011;22266;52.340;4.962;2023-07-16T08:55:03;9.00;;;8.67;;
36221;SDS011;22266;52.340;4.962;2023-07-16T08:57:30;10.67;;;10.67;;
36221;SDS011;22266;52.340;4.962;2023-07-16T08:59:57;10.00;;;9.33;;
36221;SDS011;22266;52.340;4.962;2023-07-16T09:02:24;8.67;;;7.00;;
36221;SDS011;22266;52.340;4.962;2023-07-16T09:04:51;13.67;;;8.67;;
36221;SDS011;22266;52.340;4.962;2023-07-16T09:07:18;9.67;;;9.67;;
36221;SDS011;22266;52.340;4.962;2023-07-16T09:09:58;7.00;;;7.00;;
36221;SDS011;22266;52.340;4.962;2023-07-16T09:12:26;5.75;;;5.00;;
36221;SDS011;22266;52.340;4.962;2023-07-16T09:14:53;6.00;;;6.00;;
36221;SDS011;22266;52.340;4.962;2023-07-16T09:17:24;8.00;;;7.00;;
36221;SDS011;22266;52.340;4.962;2023-07-16T09:19:51;7.00;;;7.00;;
36221;SDS011;22266;52.340;4.962;2023-07-16T09:22:18;7.00;;;6.00;;
36221;SDS011;22266;52.340;4.962;2023-07-16T09:24:46;8.33;;;7.33;;
36221;SDS011;22266;52.340;4.962;2023-07-16T09:27:13;5.25;;;5.25;;
36221;SDS011;22266;52.340;4.962;2023-07-16T09:29:40;7.33;;;6.33;;
36221;SDS011;22266;52.340;4.962;2023-07-16T09:32:07;8.33;;;7.00;;
36221;SDS011;22266;52.340;4.962;2023-07-16T09:34:33;6.50;;;6.50;;
36221;SDS011;22266;52.340;4.962;2023-07-16T09:37:00;9.00;;;6.67;;
36221;SDS011;22266;52.340;4.962;2023-07-16T09:39:28;6.25;;;6.25;;
36221;SDS011;22266;52.340;4.962;2023-07-16T09:41:54;5.25;;;4.00;;
36221;SDS011;22266;52.340;4.962;2023-07-16T09:44:24;8.67;;;6.67;;
36221;SDS011;22266;52.340;4.962;2023-07-16T09:46:50;6.33;;;6.00;;
36221;SDS011;22266;52.340;4.962;2023-07-16T09:49:17;5.33;;;5.00;;
36221;SDS011;22266;52.340;4.962;2023-07-16T09:51:44;4.33;;;4.33;;
36221;SDS011;22266;52.340;4.962;2023-07-16T09:54:14;7.67;;;6.00;;
36221;SDS011;22266;52.340;4.962;2023-07-16T09:56:43;9.33;;;8.33;;
36221;SDS011;22266;52.340;4.962;2023-07-16T09:59:12;9.00;;;9.00;;
36221;SDS011;22266;52.340;4.962;2023-07-16T10:01:41;9.00;;;9.00;;
36221;SDS011;22266;52.340;4.962;2023-07-16T10:06:49;8.67;;;8.00;;
36221;SDS011;22266;52.340;4.962;2023-07-16T10:12:24;8.00;;;5.75;;
36221;SDS011;22266;52.340;4.962;2023-07-16T10:14:53;7.33;;;7.33;;
36221;SDS011;22266;52.340;4.962;2023-07-16T10:17:24;9.67;;;8.33;;
36221;SDS011;22266;52.340;4.962;2023-07-16T10:22:33;4.50;;;3.75;;
36221;SDS011;22266;52.340;4.962;2023-07-16T10:27:44;7.00;;;7.00;;
36221;SDS011;22266;52.340;4.962;2023-07-16T10:30:12;3.50;;;3.50;;
36221;SDS011;22266;52.340;4.962;2023-07-16T10:32:39;8.67;;;6.33;;
36221;SDS011;22266;52.340;4.962;2023-07-16T10:35:06;5.00;;;4.25;;
36221;SDS011;22266;52.340;4.962;2023-07-16T10:37:37;6.50;;;4.00;;
36221;SDS011;22266;52.340;4.962;2023-07-16T10:40:04;6.25;;;6.00;;
36221;SDS011;22266;52.340;4.962;2023-07-16T10:42:32;3.50;;;3.50;;
36221;SDS011;22266;52.340;4.962;2023-07-16T10:45:00;7.25;;;6.00;;
36221;SDS011;22266;52.340;4.962;2023-07-16T10:47:31;3.75;;;3.75;;
36221;SDS011;22266;52.340;4.962;2023-07-16T10:50:00;5.75;;;5.75;;
36221;SDS011;22266;52.340;4.962;2023-07-16T10:52:29;6.00;;;5.00;;
36221;SDS011;22266;52.340;4.962;2023-07-16T10:54:55;4.75;;;4.50;;
36221;SDS011;22266;52.340;4.962;2023-07-16T10:57:24;3.75;;;3.75;;
36221;SDS011;22266;52.340;4.962;2023-07-16T10:59:51;5.75;;;5.75;;
36221;SDS011;22266;52.340;4.962;2023-07-16T11:02:20;5.75;;;5.50;;
36221;SDS011;22266;52.340;4.962;2023-07-16T11:04:47;6.00;;;4.00;;
36221;SDS011;22266;52.340;4.962;2023-07-16T11:07:14;3.75;;;2.00;;
36221;SDS011;22266;52.340;4.962;2023-07-16T11:09:45;7.50;;;3.00;;
36221;SDS011;22266;52.340;4.962;2023-07-16T11:12:14;2.00;;;2.00;;
36221;SDS011;22266;52.340;4.962;2023-07-16T11:14:43;3.75;;;3.75;;
36221;SDS011;22266;52.340;4.962;2023-07-16T11:17:11;3.00;;;2.00;;
36221;SDS011;22266;52.340;4.962;2023-07-16T11:19:38;3.00;;;2.50;;
36221;SDS011;22266;52.340;4.962;2023-07-16T11:22:07;2.00;;;2.00;;
36221;SDS011;22266;52.340;4.962;2023-07-16T11:24:51;5.25;;;3.00;;
36221;SDS011;22266;52.340;4.962;2023-07-16T11:27:26;2.00;;;2.00;;
36221;SDS011;22266;52.340;4.962;2023-07-16T11:29:54;2.50;;;2.50;;
36221;SDS011;22266;52.340;4.962;2023-07-16T11:32:29;3.00;;;2.00;;
36221;SDS011;22266;52.340;4.962;2023-07-16T11:35:04;2.00;;;2.00;;
36221;SDS011;22266;52.340;4.962;2023-07-16T11:37:32;4.00;;;2.00;;
36221;SDS011;22266;52.340;4.962;2023-07-16T11:40:04;3.00;;;3.00;;
36221;SDS011;22266;52.340;4.962;2023-07-16T11:42:35;4.75;;;2.00;;
36221;SDS011;22266;52.340;4.962;2023-07-16T11:45:14;2.25;;;2.00;;
36221;SDS011;22266;52.340;4.962;2023-07-16T11:47:45;1.25;;;1.25;;
36221;SDS011;22266;52.340;4.962;2023-07-16T11:50:12;3.25;;;2.25;;
36221;SDS011;22266;52.340;4.962;2023-07-16T11:52:39;3.50;;;3.00;;
36221;SDS011;22266;52.340;4.962;2023-07-16T11:55:07;3.25;;;3.25;;
36221;SDS011;22266;52.340;4.962;2023-07-16T11:57:34;2.00;;;2.00;;
36221;SDS011;22266;52.340;4.962;2023-07-16T12:00:02;2.00;;;2.00;;
36221;SDS011;22266;52.340;4.962;2023-07-16T12:02:30;0.75;;;0.75;;
36221;SDS011;22266;52.340;4.962;2023-07-16T12:04:56;2.75;;;2.75;;
36221;SDS011;22266;52.340;4.962;2023-07-16T12:07:32;1.00;;;0.50;;
36221;SDS011;22266;52.340;4.962;2023-07-16T12:10:04;0.75;;;0.00;;
36221;SDS011;22266;52.340;4.962;2023-07-16T12:12:33;1.00;;;1.00;;
36221;SDS011;22266;52.340;4.962;2023-07-16T12:15:04;0.25;;;0.00;;
36221;SDS011;22266;52.340;4.962;2023-07-16T12:17:31;2.50;;;1.00;;
36221;SDS011;22266;52.340;4.962;2023-07-16T12:19:58;0.00;;;0.00;;
36221;SDS011;22266;52.340;4.962;2023-07-16T12:22:24;0.00;;;0.00;;
36221;SDS011;22266;52.340;4.962;2023-07-16T12:24:51;0.00;;;0.00;;
36221;SDS011;22266;52.340;4.962;2023-07-16T12:27:18;0.50;;;0.50;;
36221;SDS011;22266;52.340;4.962;2023-07-16T12:29:45;0.25;;;0.25;;
36221;SDS011;22266;52.340;4.962;2023-07-16T12:32:12;1.00;;;1.00;;
36221;SDS011;22266;52.340;4.962;2023-07-16T12:34:39;0.00;;;0.00;;
36221;SDS011;22266;52.340;4.962;2023-07-16T12:37:06;1.00;;;1.00;;
36221;SDS011;22266;52.340;4.962;2023-07-16T12:39:33;0.50;;;0.50;;
36221;SDS011;22266;52.340;4.962;2023-07-16T12:41:59;0.50;;;0.50;;
36221;SDS011;22266;52.340;4.962;2023-07-16T12:44:26;1.00;;;1.00;;
36221;SDS011;22266;52.340;4.962;2023-07-16T12:46:52;1.00;;;1.00;;
36221;SDS011;22266;52.340;4.962;2023-07-16T12:49:19;1.00;;;1.00;;
36221;SDS011;22266;52.340;4.962;2023-07-16T12:51:46;5.00;;;2.50;;
36221;SDS011;22266;52.340;4.962;2023-07-16T12:54:12;3.50;;;1.75;;
36221;SDS011;22266;52.340;4.962;2023-07-16T12:56:39;3.00;;;3.00;;
36221;SDS011;22266;52.340;4.962;2023-07-16T12:59:06;2.25;;;2.25;;
36221;SDS011;22266;52.340;4.962;2023-07-16T13:01:33;1.00;;;1.00;;
36221;SDS011;22266;52.340;4.962;2023-07-16T13:03:59;1.25;;;0.75;;
36221;SDS011;22266;52.340;4.962;2023-07-16T13:06:26;1.00;;;1.00;;
36221;SDS011;22266;52.340;4.962;2023-07-16T13:08:52;1.75;;;1.75;;
36221;SDS011;22266;52.340;4.962;2023-07-16T13:11:19;3.00;;;1.00;;
36221;SDS011;22266;52.340;4.962;2023-07-16T13:13:48;2.00;;;2.00;;
36221;SDS011;22266;52.340;4.962;2023-07-16T13:16:15;2.50;;;1.00;;
36221;SDS011;22266;52.340;4.962;2023-07-16T13:18:41;1.75;;;1.50;;
36221;SDS011;22266;52.340;4.962;2023-07-16T13:21:08;3.00;;;1.75;;
36221;SDS011;22266;52.340;4.962;2023-07-16T13:23:34;1.00;;;1.00;;
36221;SDS011;22266;52.340;4.962;2023-07-16T13:26:01;3.00;;;3.00;;
36221;SDS011;22266;52.340;4.962;2023-07-16T13:28:28;1.50;;;1.50;;
36221;SDS011;22266;52.340;4.962;2023-07-16T13:30:54;2.25;;;2.00;;
36221;SDS011;22266;52.340;4.962;2023-07-16T13:33:21;0.75;;;0.25;;
36221;SDS011;22266;52.340;4.962;2023-07-16T13:35:49;0.75;;;0.75;;
36221;SDS011;22266;52.340;4.962;2023-07-16T13:38:15;1.00;;;1.00;;
36221;SDS011;22266;52.340;4.962;2023-07-16T13:40:42;1.00;;;1.00;;
36221;SDS011;22266;52.340;4.962;2023-07-16T13:43:08;1.00;;;1.00;;
36221;SDS011;22266;52.340;4.962;2023-07-16T13:45:35;0.75;;;0.75;;
36221;SDS011;22266;52.340;4.962;2023-07-16T13:48:02;0.00;;;0.00;;
36221;SDS011;22266;52.340;4.962;2023-07-16T13:50:28;0.00;;;0.00;;
36221;SDS011;22266;52.340;4.962;2023-07-16T13:52:55;1.25;;;1.25;;
36221;SDS011;22266;52.340;4.962;2023-07-16T13:55:22;2.75;;;1.00;;
36221;SDS011;22266;52.340;4.962;2023-07-16T13:57:48;3.00;;;1.00;;
36221;SDS011;22266;52.340;4.962;2023-07-16T14:00:15;5.00;;;2.25;;
36221;SDS011;22266;52.340;4.962;2023-07-16T14:02:42;1.00;;;0.00;;
36221;SDS011;22266;52.340;4.962;2023-07-16T14:05:10;1.00;;;0.00;;
36221;SDS011;22266;52.340;4.962;2023-07-16T14:07:37;1.25;;;1.25;;
36221;SDS011;22266;52.340;4.962;2023-07-16T14:10:04;0.75;;;0.75;;
36221;SDS011;22266;52.340;4.962;2023-07-16T14:12:31;1.00;;;1.00;;
36221;SDS011;22266;52.340;4.962;2023-07-16T14:14:57;2.00;;;2.00;;
36221;SDS011;22266;52.340;4.962;2023-07-16T14:17:24;1.00;;;0.75;;
36221;SDS011;22266;52.340;4.962;2023-07-16T14:19:51;3.00;;;3.00;;
36221;SDS011;22266;52.340;4.962;2023-07-16T14:22:17;3.00;;;2.00;;
36221;SDS011;22266;52.340;4.962;2023-07-16T14:24:43;2.25;;;2.25;;
36221;SDS011;22266;52.340;4.962;2023-07-16T14:27:10;3.25;;;2.25;;
36221;SDS011;22266;52.340;4.962;2023-07-16T14:29:39;3.25;;;3.25;;
36221;SDS011;22266;52.340;4.962;2023-07-16T14:32:24;2.00;;;1.50;;
36221;SDS011;22266;52.340;4.962;2023-07-16T14:34:52;2.25;;;2.00;;
36221;SDS011;22266;52.340;4.962;2023-07-16T14:37:18;1.50;;;1.50;;
36221;SDS011;22266;52.340;4.962;2023-07-16T14:39:45;2.25;;;2.25;;
36221;SDS011;22266;52.340;4.962;2023-07-16T14:42:12;0.00;;;0.00;;
36221;SDS011;22266;52.340;4.962;2023-07-16T14:44:38;1.00;;;1.00;;
36221;SDS011;22266;52.340;4.962;2023-07-16T14:47:05;1.00;;;1.00;;
36221;SDS011;22266;52.340;4.962;2023-07-16T14:49:31;1.25;;;1.00;;
36221;SDS011;22266;52.340;4.962;2023-07-16T14:51:58;2.00;;;1.25;;
36221;SDS011;22266;52.340;4.962;2023-07-16T14:54:24;2.00;;;1.75;;
36221;SDS011;22266;52.340;4.962;2023-07-16T14:56:50;1.00;;;1.00;;
36221;SDS011;22266;52.340;4.962;2023-07-16T14:59:17;1.25;;;1.25;;
36221;SDS011;22266;52.340;4.962;2023-07-16T15:01:43;2.00;;;0.25;;
36221;SDS011;22266;52.340;4.962;2023-07-16T15:04:10;2.00;;;2.00;;